MSC Romane — CQZN — position and weather

sailwx.info

Track history (hours):
 
Tides and Currents Weather Stations Pressure Air Temp Water Temp Dewpoint Dewpoint Depression Visibility Wind Speed Wind Dir Waves Ship Positions

MSC Romane

Last reported at 2017-Nov-12 06:21 UTC. Time now 2017-Nov-22 03:36 UTC.
Position N 24°37' W 016°37'.
Warning: this ship's position is 9 days out of date.

Length 299 m; draft 11.8 m.

Type: Cargo ship. MMSI: 255805867.

Date/timePositionNaut miles runAvg speedWind from/ knotsBaromVisibWave heightAir tempDewpointWater temp
2017-Nov-12 06:21N 24°37' W 016°37'817.4
2017-Nov-12 05:53N 24°45' W 016°34'1917.7
2017-Nov-12 04:48N 25°03' W 016°27'517.5
2017-Nov-12 04:30N 25°08' W 016°25'917.5
2017-Nov-12 04:00N 25°16' W 016°22'918.2
2017-Nov-12 03:30N 25°25' W 016°18'918.7
2017-Nov-12 03:00N 25°33' W 016°15'918.0
2017-Nov-12 02:30N 25°42' W 016°11'917.9
2017-Nov-12 02:00N 25°50' W 016°08'8618.6
2017-Nov-11 21:21N 27°12' W 015°36'718.9
2017-Nov-11 20:59N 27°18' W 015°33'918.8
2017-Nov-11 20:29N 27°27' W 015°30'1818.6
2017-Nov-11 19:29N 27°45' W 015°23'817.8
2017-Nov-11 19:00N 27°52' W 015°19'918.4
2017-Nov-11 18:30N 28°02' W 015°19'714.5
2017-Nov-11 18:00N 28°07' W 015°24'1 1.3
2017-Nov-11 17:30N 28°08' W 015°25'0 0.0
2017-Nov-11 16:57N 28°08' W 015°25'0 0.0
2017-Nov-11 16:15N 28°08' W 015°25'0 0.0
2017-Nov-11 16:00N 28°08' W 015°25'0 0.0
2017-Nov-11 15:30N 28°08' W 015°25'0 0.0
2017-Nov-11 15:00N 28°08' W 015°25'0 0.0
2017-Nov-11 14:30N 28°08' W 015°25'0 0.0
2017-Nov-11 14:00N 28°08' W 015°25'0 0.0
2017-Nov-11 13:30N 28°08' W 015°25'0 0.0
2017-Nov-11 12:48N 28°08' W 015°25'0 0.0
2017-Nov-11 12:30N 28°08' W 015°25'0 0.0
2017-Nov-11 12:00N 28°08' W 015°25'0 0.0
2017-Nov-11 11:30N 28°08' W 015°25'0 0.0
2017-Nov-11 10:51N 28°08' W 015°25'0 0.0
2017-Nov-11 10:30N 28°08' W 015°25'0 0.0
2017-Nov-11 10:00N 28°08' W 015°25'0 0.0
2017-Nov-11 09:24N 28°08' W 015°25'0 0.0
2017-Nov-11 08:54N 28°08' W 015°25'0 0.0
2017-Nov-11 08:24N 28°08' W 015°25'0 0.0
2017-Nov-11 07:51N 28°08' W 015°25'0 0.0
2017-Nov-11 07:24N 28°08' W 015°25'0 0.0
2017-Nov-11 06:54N 28°08' W 015°25'0 0.0
2017-Nov-11 06:24N 28°08' W 015°25'0 0.0
2017-Nov-11 05:57N 28°08' W 015°25'0 0.0
2017-Nov-11 05:27N 28°08' W 015°25'0 0.0
2017-Nov-11 04:57N 28°08' W 015°25'0 0.0
2017-Nov-11 04:27N 28°08' W 015°25'0 0.0
2017-Nov-11 03:57N 28°08' W 015°25'0 0.0
2017-Nov-11 03:30N 28°08' W 015°25'0 0.0
2017-Nov-11 02:57N 28°08' W 015°25'0 0.0
2017-Nov-11 02:30N 28°08' W 015°25'0 0.0
2017-Nov-11 02:00N 28°08' W 015°25'0 0.0
2017-Nov-11 01:30N 28°08' W 015°25'0 0.5
2017-Nov-11 01:00N 28°08' W 015°25'2 4.1
2017-Nov-11 00:30N 28°07' W 015°22'1 1.3
2017-Nov-11 00:00N 28°07' W 015°22'3 5.7
2017-Nov-10 23:30N 28°09' W 015°20'816.3
2017-Nov-10 23:00N 28°16' W 015°15'1020.0
2017-Nov-10 22:30N 28°25' W 015°10'1019.9
2017-Nov-10 22:01N 28°34' W 015°05'1020.3
2017-Nov-10 21:31N 28°43' W 014°60'1020.4
2017-Nov-10 21:01N 28°52' W 014°54'1120.7
2017-Nov-10 20:30N 29°02' W 014°49'1021.2
2017-Nov-10 20:01N 29°11' W 014°43'1020.6
2017-Nov-10 19:30N 29°20' W 014°38'1120.4
2017-Nov-10 18:57N 29°30' W 014°32'920.8
2017-Nov-10 18:30N 29°38' W 014°27'1220.9
2017-Nov-10 17:55N 29°49' W 014°20'2220.6
2017-Nov-10 16:52N 30°08' W 014°09'720.3
2017-Nov-10 16:30N 30°15' W 014°05'10419.9
2017-Nov-10 11:19N 31°47' W 013°09'719.3
2017-Nov-10 10:58N 31°53' W 013°06'919.5
2017-Nov-10 10:30N 32°01' W 013°01'1019.7
2017-Nov-10 10:00N 32°10' W 012°55'1019.7
2017-Nov-10 09:30N 32°18' W 012°50'1019.6
2017-Nov-10 09:01N 32°27' W 012°44'1019.5
2017-Nov-10 08:30N 32°35' W 012°38'2819.8
2017-Nov-10 07:06N 32°59' W 012°23'619.9
2017-Nov-10 06:48N 33°05' W 012°19'619.9
2017-Nov-10 06:30N 33°10' W 012°16'1019.8
2017-Nov-10 06:00N 33°19' W 012°11'1019.8
2017-Nov-10 05:30N 33°28' W 012°05'1219.9
2017-Nov-10 04:55N 33°38' W 011°59'920.1
2017-Nov-10 04:28N 33°46' W 011°54'25820.2
2017-Nov-09 15:42N 37°30' W 009°16'421.6
2017-Nov-09 15:30N 37°33' W 009°13'1121.8
2017-Nov-09 15:00N 37°41' W 009°04'1122.1
2017-Nov-09 14:31N 37°49' W 008°54'714.3
2017-Nov-09 14:00N 37°56' W 008°51'0 0.8
2017-Nov-09 13:28N 37°56' W 008°51'0 0.0
2017-Nov-09 12:59N 37°56' W 008°51'0 0.0
2017-Nov-09 12:29N 37°56' W 008°51'0 0.0
2017-Nov-09 11:58N 37°56' W 008°51'0 0.0
2017-Nov-09 11:28N 37°56' W 008°51'0 0.0
2017-Nov-09 10:58N 37°56' W 008°51'0 0.0
2017-Nov-09 10:25N 37°56' W 008°51'0 0.0
2017-Nov-09 09:58N 37°56' W 008°51'0 0.0
2017-Nov-09 09:28N 37°56' W 008°51'0 0.0
2017-Nov-09 08:59N 37°56' W 008°51'0 0.0
2017-Nov-09 08:29N 37°56' W 008°51'0 0.0
2017-Nov-09 07:58N 37°56' W 008°51'0 0.0
2017-Nov-09 07:28N 37°56' W 008°51'0 0.0
2017-Nov-09 06:58N 37°56' W 008°51'0 0.0
2017-Nov-09 06:28N 37°56' W 008°51'0 0.0
2017-Nov-09 05:58N 37°56' W 008°51'0 0.0
2017-Nov-09 05:28N 37°56' W 008°51'0 0.0
2017-Nov-09 04:58N 37°56' W 008°51'0 0.0
2017-Nov-09 04:28N 37°56' W 008°51'0 0.0
2017-Nov-09 03:58N 37°56' W 008°51'0 0.0
2017-Nov-09 03:28N 37°56' W 008°51'0 0.0
2017-Nov-09 02:58N 37°56' W 008°51'0 0.0
2017-Nov-09 02:28N 37°56' W 008°51'0 0.0
2017-Nov-09 01:58N 37°56' W 008°51'0 0.0
2017-Nov-09 01:28N 37°56' W 008°51'1 1.2
2017-Nov-09 01:00N 37°55' W 008°50'2 4.7
2017-Nov-09 00:30N 37°53' W 008°50'2 4.3
2017-Nov-09 00:00N 37°51' W 008°51'3 6.5
2017-Nov-08 23:31N 37°48' W 008°52'4 7.1
2017-Nov-08 23:00N 37°45' W 008°54'1 2.1
2017-Nov-08 22:30N 37°46' W 008°55'1 2.4
2017-Nov-08 22:01N 37°47' W 008°55'1 2.5
2017-Nov-08 21:31N 37°48' W 008°55'1 2.9
2017-Nov-08 21:00N 37°50' W 008°56'3 6.2
2017-Nov-08 20:31N 37°51' W 008°60'3 6.2
2017-Nov-08 20:01N 37°52' W 009°03'4 7.0
2017-Nov-08 19:31N 37°54' W 009°07'4 8.6
2017-Nov-08 19:01N 37°57' W 009°10'4 8.5
2017-Nov-08 18:30N 38°01' W 009°13'612.7
2017-Nov-08 18:01N 38°05' W 009°19'815.9
2017-Nov-08 17:31N 38°09' W 009°28'815.8
2017-Nov-08 17:00N 38°13' W 009°36'714.8
2017-Nov-08 16:30N 38°17' W 009°45'815.9
2017-Nov-08 16:00N 38°21' W 009°53'815.5
2017-Nov-08 15:30N 38°25' W 010°01'612.0
2017-Nov-08 15:00N 38°31' W 010°04'914.8
2017-Nov-08 14:24N 38°40' W 010°06'614.6
2017-Nov-08 14:00N 38°46' W 010°07'714.3
2017-Nov-08 13:30N 38°53' W 010°07'813.7
2017-Nov-08 12:57N 39°00' W 010°06'614.2
2017-Nov-08 12:30N 39°07' W 010°06'714.5
2017-Nov-08 12:00N 39°14' W 010°06'713.8
2017-Nov-08 11:31N 39°21' W 010°06'713.6
2017-Nov-08 10:59N 39°28' W 010°06'58116.7
2017-Nov-07 00:06N 48°42' W 005°60'322.0
2017-Nov-06 23:59N 48°44' W 005°58'1422.8
2017-Nov-06 23:21N 48°54' W 005°42'23211.1
2017-Nov-06 02:28N 49°28' E 000°08'0 0.0
2017-Nov-06 01:58N 49°28' E 000°08'0 0.0
2017-Nov-06 01:28N 49°28' E 000°08'0 0.0
2017-Nov-06 00:58N 49°28' E 000°08'0 0.0
2017-Nov-06 00:28N 49°28' E 000°08'0 0.0
2017-Nov-05 23:58N 49°28' E 000°08'0 0.0
2017-Nov-05 23:28N 49°28' E 000°08'0 0.0
2017-Nov-05 22:58N 49°28' E 000°08'0 0.0
2017-Nov-05 22:28N 49°28' E 000°08'0 0.0
2017-Nov-05 21:58N 49°28' E 000°08'0 0.0
2017-Nov-05 21:28N 49°28' E 000°08'0 0.0
2017-Nov-05 20:58N 49°28' E 000°08'0 0.0
2017-Nov-05 20:28N 49°28' E 000°08'0 0.0
2017-Nov-05 19:58N 49°28' E 000°08'0 0.7
2017-Nov-05 19:31N 49°28' E 000°08'4 8.7
2017-Nov-05 19:01N 49°30' E 000°02'611.8
2017-Nov-05 18:31N 49°32' W 000°06'3 6.4
2017-Nov-05 18:01N 49°33' W 000°11'5 9.2
2017-Nov-05 17:30N 49°38' W 000°11'510.5
2017-Nov-05 17:00N 49°43' W 000°11'511.0
2017-Nov-05 16:31N 49°48' W 000°10'510.5
2017-Nov-05 16:01N 49°54' W 000°11'510.7
2017-Nov-05 15:30N 49°59' W 000°13'610.8
2017-Nov-05 15:00N 50°04' W 000°14'611.3
2017-Nov-05 14:30N 50°10' W 000°14'611.2
2017-Nov-05 14:00N 50°15' W 000°14'611.5
2017-Nov-05 13:30N 50°20' W 000°09'612.6
2017-Nov-05 13:00N 50°25' W 000°03'611.7
2017-Nov-05 12:30N 50°29' E 000°05'611.8
2017-Nov-05 12:01N 50°30' E 000°13'611.3
2017-Nov-05 11:30N 50°32' E 000°22'510.8
2017-Nov-05 11:00N 50°34' E 000°30'510.4
2017-Nov-05 10:30N 50°36' E 000°38'510.2
2017-Nov-05 10:01N 50°39' E 000°44'510.3
2017-Nov-05 09:31N 50°41' E 000°51'510.6
2017-Nov-05 09:01N 50°44' E 000°58'510.2
2017-Nov-05 08:30N 50°47' E 001°05'611.5
2017-Nov-05 08:01N 50°51' E 001°12'714.2
2017-Nov-05 07:30N 50°56' E 001°20'715.0
2017-Nov-05 07:00N 51°01' E 001°28'815.0
2017-Nov-05 06:30N 51°07' E 001°36'714.2
2017-Nov-05 06:00N 51°12' E 001°44'714.1
2017-Nov-05 05:30N 51°17' E 001°51'713.0
2017-Nov-05 05:01N 51°23' E 001°57'510.2
2017-Nov-05 04:30N 51°25' E 002°05'612.1
2017-Nov-05 04:01N 51°22' E 002°13'510.9
2017-Nov-05 03:30N 51°21' E 002°22'611.1
2017-Nov-05 03:00N 51°23' E 002°31'510.9
2017-Nov-05 02:30N 51°23' E 002°39'5 9.8
2017-Nov-05 02:00N 51°25' E 002°47'917.4
2017-Nov-05 01:30N 51°25' E 003°01'917.2
2017-Nov-05 01:00N 51°25' E 003°14'816.4
2017-Nov-05 00:30N 51°25' E 003°27'510.5
2017-Nov-05 00:00N 51°26' E 003°36'4 8.9
2017-Nov-04 23:30N 51°24' E 003°43'714.0
2017-Nov-04 23:00N 51°21' E 003°53'714.1
2017-Nov-04 22:30N 51°26' E 004°00'611.4
2017-Nov-04 22:01N 51°22' E 004°07'5 9.5
2017-Nov-04 21:31N 51°21' E 004°14'4 7.3
2017-Nov-04 21:01N 51°18' E 004°16'0 0.4
2017-Nov-04 20:31N 51°18' E 004°16'0 0.0
2017-Nov-04 19:58N 51°18' E 004°16'0 0.0
2017-Nov-04 19:28N 51°18' E 004°16'0 0.0
2017-Nov-04 18:58N 51°18' E 004°16'0 0.0
2017-Nov-04 18:28N 51°18' E 004°16'0 0.0
2017-Nov-04 17:58N 51°18' E 004°16'0 0.0
2017-Nov-04 17:28N 51°18' E 004°16'0 0.0
2017-Nov-04 16:58N 51°18' E 004°16'0 0.0
2017-Nov-04 16:28N 51°18' E 004°16'0 0.0
2017-Nov-04 15:58N 51°18' E 004°16'0 0.0
2017-Nov-04 15:28N 51°18' E 004°16'0 0.0
2017-Nov-04 14:58N 51°18' E 004°16'0 0.0
2017-Nov-04 14:28N 51°18' E 004°16'0 0.0
2017-Nov-04 13:58N 51°18' E 004°16'0 0.0
2017-Nov-04 13:28N 51°18' E 004°16'0 0.0
2017-Nov-04 12:58N 51°18' E 004°16'0 0.0
2017-Nov-04 12:28N 51°18' E 004°16'0 0.0
2017-Nov-04 11:58N 51°18' E 004°16'0 0.0
2017-Nov-04 11:28N 51°18' E 004°16'0 0.0
2017-Nov-04 10:58N 51°18' E 004°16'0 0.0
2017-Nov-04 10:28N 51°18' E 004°16'0 0.0
2017-Nov-04 09:58N 51°18' E 004°16'0 0.0
2017-Nov-04 09:28N 51°18' E 004°16'0 0.0
2017-Nov-04 08:58N 51°18' E 004°16'0 0.0
2017-Nov-04 08:28N 51°18' E 004°16'0 0.0
2017-Nov-04 07:58N 51°18' E 004°16'0 0.0
2017-Nov-04 07:28N 51°18' E 004°16'0 0.0
2017-Nov-04 06:58N 51°18' E 004°16'0 0.0
2017-Nov-04 06:28N 51°18' E 004°16'0 0.0
2017-Nov-04 05:52N 51°18' E 004°16'0 0.0
2017-Nov-04 05:28N 51°18' E 004°16'0 0.0
2017-Nov-04 04:58N 51°18' E 004°16'0 0.0
2017-Nov-04 04:28N 51°18' E 004°16'0 0.0
2017-Nov-04 03:58N 51°18' E 004°16'0 0.0
2017-Nov-04 03:28N 51°18' E 004°16'0 0.0
2017-Nov-04 02:58N 51°18' E 004°16'0 0.0
2017-Nov-04 02:28N 51°18' E 004°16'0 0.0
2017-Nov-04 01:58N 51°18' E 004°16'0 0.0
2017-Nov-04 01:28N 51°18' E 004°16'0 0.0
2017-Nov-04 00:58N 51°18' E 004°16'0 0.0
2017-Nov-04 00:28N 51°18' E 004°16'0 0.0
2017-Nov-03 23:58N 51°18' E 004°16'0 0.0
2017-Nov-03 23:28N 51°18' E 004°16'0 0.0
2017-Nov-03 22:58N 51°18' E 004°16'0 0.0
2017-Nov-03 22:28N 51°18' E 004°16'0 0.0
2017-Nov-03 21:58N 51°18' E 004°16'0 0.0
2017-Nov-03 21:28N 51°18' E 004°16'0 0.0
2017-Nov-03 20:58N 51°18' E 004°16'0 0.0
2017-Nov-03 20:28N 51°18' E 004°16'0 0.0
2017-Nov-03 19:55N 51°18' E 004°16'1 1.6
2017-Nov-03 19:30N 51°18' E 004°16'2 4.7
2017-Nov-03 19:00N 51°20' E 004°16'5 9.4
2017-Nov-03 18:30N 51°23' E 004°10'510.5
2017-Nov-03 18:01N 51°25' E 004°02'4 7.6
2017-Nov-03 17:30N 51°23' E 003°56'612.5
2017-Nov-03 17:01N 51°21' E 003°47'714.0
2017-Nov-03 16:30N 51°26' E 003°39'816.6
2017-Nov-03 16:00N 51°25' E 003°26'816.8
2017-Nov-03 15:30N 51°24' E 003°13'917.7
2017-Nov-03 15:01N 51°25' E 002°59'917.4
2017-Nov-03 14:30N 51°33' E 003°06'917.8
2017-Nov-03 14:00N 51°41' E 003°12'510.0
2017-Nov-03 13:29N 51°46' E 003°15'2 4.7
2017-Nov-03 13:00N 51°48' E 003°16'4 7.3
2017-Nov-03 12:30N 51°51' E 003°17'3 6.7
2017-Nov-03 12:00N 51°55' E 003°18'4 7.9
2017-Nov-03 11:30N 51°59' E 003°19'4 7.3
2017-Nov-03 10:59N 52°02' E 003°20'918.3
2017-Nov-03 10:29N 52°12' E 003°21'1020.8
2017-Nov-03 09:59N 52°22' E 003°25'1121.1
2017-Nov-03 09:29N 52°32' E 003°29'1020.7
2017-Nov-03 09:00N 52°41' E 003°36'1121.5
2017-Nov-03 08:30N 52°50' E 003°46'1121.2
2017-Nov-03 08:00N 52°58' E 003°58'1121.0
2017-Nov-03 07:30N 53°04' E 004°11'1020.6
2017-Nov-03 07:01N 53°11' E 004°24'1920.1
2017-Nov-03 06:02N 53°28' E 004°38'120.2
2017-Nov-03 06:00N 53°29' E 004°39'1019.9
2017-Nov-03 05:30N 53°33' E 004°55'1019.6
2017-Nov-03 04:59N 53°36' E 005°11'1019.7
2017-Nov-03 04:29N 53°39' E 005°27'7220.8
2017-Nov-03 01:00N 53°60' E 007°24'1321.3
2017-Nov-03 00:22N 54°03' E 007°47'820.9
2017-Nov-02 23:59N 54°01' E 008°00'1017.1
2017-Nov-02 23:25N 54°00' E 008°16'919.6
2017-Nov-02 22:59N 53°58' E 008°31'816.3
2017-Nov-02 22:31N 53°54' E 008°42'611.7
2017-Nov-02 22:00N 53°50' E 008°49'510.8
2017-Nov-02 21:30N 53°51' E 008°59'611.5
2017-Nov-02 21:00N 53°53' E 009°08'611.5
2017-Nov-02 20:31N 53°52' E 009°17'714.5
2017-Nov-02 20:01N 53°46' E 009°24'714.6
2017-Nov-02 19:30N 53°40' E 009°31'714.3
2017-Nov-02 19:01N 53°34' E 009°39'713.5
2017-Nov-02 18:30N 53°33' E 009°50'3 6.7
2017-Nov-02 18:01N 53°32' E 009°55'0 0.0
2017-Nov-02 17:30N 53°32' E 009°55'0 0.0
2017-Nov-02 17:00N 53°32' E 009°55'0 0.0
2017-Nov-02 16:30N 53°32' E 009°55'0 0.0
2017-Nov-02 16:01N 53°32' E 009°55'0 0.0
2017-Nov-02 15:30N 53°32' E 009°55'0 0.0
2017-Nov-02 15:00N 53°32' E 009°55'0 0.0
2017-Nov-02 14:30N 53°32' E 009°55'0 0.0
2017-Nov-02 14:00N 53°32' E 009°55'0 0.0
2017-Nov-02 13:30N 53°32' E 009°55'0 0.0
2017-Nov-02 13:01N 53°32' E 009°55'0 0.0
2017-Nov-02 12:30N 53°32' E 009°55'0 0.0
2017-Nov-02 12:00N 53°32' E 009°55'0 0.0
2017-Nov-02 11:30N 53°32' E 009°55'0 0.0
2017-Nov-02 11:00N 53°32' E 009°55'0 0.0
2017-Nov-02 10:31N 53°32' E 009°55'0 0.0
2017-Nov-02 10:00N 53°32' E 009°55'0 0.0
2017-Nov-02 09:30N 53°32' E 009°55'0 0.0
2017-Nov-02 09:00N 53°32' E 009°55'0 0.0
2017-Nov-02 08:30N 53°32' E 009°55'0 0.0
2017-Nov-02 08:00N 53°32' E 009°55'0 0.0
2017-Nov-02 07:30N 53°32' E 009°55'0 0.0
2017-Nov-02 07:00N 53°32' E 009°55'0 0.0
2017-Nov-02 06:30N 53°32' E 009°55'  
Track history (hours):
 
Tides and Currents Weather Stations Pressure Air Temp Water Temp Dewpoint Dewpoint Depression Visibility Wind Speed Wind Dir Waves Ship Positions

MSC Romane

Last reported at 2017-Nov-12 06:21 UTC. Time now 2017-Nov-22 03:36 UTC.
Position N 24°37' W 016°37'.
Warning: this ship's position is 9 days out of date.

Length 299 m; draft 11.8 m.

Type: Cargo ship. MMSI: 255805867.

Date/timePositionNaut miles runAvg speedWind from/ knotsBaromVisibWave heightAir tempDewpointWater temp
2017-Nov-12 06:21N 24°37' W 016°37'817.4
2017-Nov-12 05:53N 24°45' W 016°34'1917.7
2017-Nov-12 04:48N 25°03' W 016°27'517.5
2017-Nov-12 04:30N 25°08' W 016°25'917.5
2017-Nov-12 04:00N 25°16' W 016°22'918.2
2017-Nov-12 03:30N 25°25' W 016°18'918.7
2017-Nov-12 03:00N 25°33' W 016°15'918.0
2017-Nov-12 02:30N 25°42' W 016°11'917.9
2017-Nov-12 02:00N 25°50' W 016°08'8618.6
2017-Nov-11 21:21N 27°12' W 015°36'718.9
2017-Nov-11 20:59N 27°18' W 015°33'918.8
2017-Nov-11 20:29N 27°27' W 015°30'1818.6
2017-Nov-11 19:29N 27°45' W 015°23'817.8
2017-Nov-11 19:00N 27°52' W 015°19'918.4
2017-Nov-11 18:30N 28°02' W 015°19'714.5
2017-Nov-11 18:00N 28°07' W 015°24'1 1.3
2017-Nov-11 17:30N 28°08' W 015°25'0 0.0
2017-Nov-11 16:57N 28°08' W 015°25'0 0.0
2017-Nov-11 16:15N 28°08' W 015°25'0 0.0
2017-Nov-11 16:00N 28°08' W 015°25'0 0.0
2017-Nov-11 15:30N 28°08' W 015°25'0 0.0
2017-Nov-11 15:00N 28°08' W 015°25'0 0.0
2017-Nov-11 14:30N 28°08' W 015°25'0 0.0
2017-Nov-11 14:00N 28°08' W 015°25'0 0.0
2017-Nov-11 13:30N 28°08' W 015°25'0 0.0
2017-Nov-11 12:48N 28°08' W 015°25'0 0.0
2017-Nov-11 12:30N 28°08' W 015°25'0 0.0
2017-Nov-11 12:00N 28°08' W 015°25'0 0.0
2017-Nov-11 11:30N 28°08' W 015°25'0 0.0
2017-Nov-11 10:51N 28°08' W 015°25'0 0.0
2017-Nov-11 10:30N 28°08' W 015°25'0 0.0
2017-Nov-11 10:00N 28°08' W 015°25'0 0.0
2017-Nov-11 09:24N 28°08' W 015°25'0 0.0
2017-Nov-11 08:54N 28°08' W 015°25'0 0.0
2017-Nov-11 08:24N 28°08' W 015°25'0 0.0
2017-Nov-11 07:51N 28°08' W 015°25'0 0.0
2017-Nov-11 07:24N 28°08' W 015°25'0 0.0
2017-Nov-11 06:54N 28°08' W 015°25'0 0.0
2017-Nov-11 06:24N 28°08' W 015°25'0 0.0
2017-Nov-11 05:57N 28°08' W 015°25'0 0.0
2017-Nov-11 05:27N 28°08' W 015°25'0 0.0
2017-Nov-11 04:57N 28°08' W 015°25'0 0.0
2017-Nov-11 04:27N 28°08' W 015°25'0 0.0
2017-Nov-11 03:57N 28°08' W 015°25'0 0.0
2017-Nov-11 03:30N 28°08' W 015°25'0 0.0
2017-Nov-11 02:57N 28°08' W 015°25'0 0.0
2017-Nov-11 02:30N 28°08' W 015°25'0 0.0
2017-Nov-11 02:00N 28°08' W 015°25'0 0.0
2017-Nov-11 01:30N 28°08' W 015°25'0 0.5
2017-Nov-11 01:00N 28°08' W 015°25'2 4.1
2017-Nov-11 00:30N 28°07' W 015°22'1 1.3
2017-Nov-11 00:00N 28°07' W 015°22'3 5.7
2017-Nov-10 23:30N 28°09' W 015°20'816.3
2017-Nov-10 23:00N 28°16' W 015°15'1020.0
2017-Nov-10 22:30N 28°25' W 015°10'1019.9
2017-Nov-10 22:01N 28°34' W 015°05'1020.3
2017-Nov-10 21:31N 28°43' W 014°60'1020.4
2017-Nov-10 21:01N 28°52' W 014°54'1120.7
2017-Nov-10 20:30N 29°02' W 014°49'1021.2
2017-Nov-10 20:01N 29°11' W 014°43'1020.6
2017-Nov-10 19:30N 29°20' W 014°38'1120.4
2017-Nov-10 18:57N 29°30' W 014°32'920.8
2017-Nov-10 18:30N 29°38' W 014°27'1220.9
2017-Nov-10 17:55N 29°49' W 014°20'2220.6
2017-Nov-10 16:52N 30°08' W 014°09'720.3
2017-Nov-10 16:30N 30°15' W 014°05'10419.9
2017-Nov-10 11:19N 31°47' W 013°09'719.3
2017-Nov-10 10:58N 31°53' W 013°06'919.5
2017-Nov-10 10:30N 32°01' W 013°01'1019.7
2017-Nov-10 10:00N 32°10' W 012°55'1019.7
2017-Nov-10 09:30N 32°18' W 012°50'1019.6
2017-Nov-10 09:01N 32°27' W 012°44'1019.5
2017-Nov-10 08:30N 32°35' W 012°38'2819.8
2017-Nov-10 07:06N 32°59' W 012°23'619.9
2017-Nov-10 06:48N 33°05' W 012°19'619.9
2017-Nov-10 06:30N 33°10' W 012°16'1019.8
2017-Nov-10 06:00N 33°19' W 012°11'1019.8
2017-Nov-10 05:30N 33°28' W 012°05'1219.9
2017-Nov-10 04:55N 33°38' W 011°59'920.1
2017-Nov-10 04:28N 33°46' W 011°54'25820.2
2017-Nov-09 15:42N 37°30' W 009°16'421.6
2017-Nov-09 15:30N 37°33' W 009°13'1121.8
2017-Nov-09 15:00N 37°41' W 009°04'1122.1
2017-Nov-09 14:31N 37°49' W 008°54'714.3
2017-Nov-09 14:00N 37°56' W 008°51'0 0.8
2017-Nov-09 13:28N 37°56' W 008°51'0 0.0
2017-Nov-09 12:59N 37°56' W 008°51'0 0.0
2017-Nov-09 12:29N 37°56' W 008°51'0 0.0
2017-Nov-09 11:58N 37°56' W 008°51'0 0.0
2017-Nov-09 11:28N 37°56' W 008°51'0 0.0
2017-Nov-09 10:58N 37°56' W 008°51'0 0.0
2017-Nov-09 10:25N 37°56' W 008°51'0 0.0
2017-Nov-09 09:58N 37°56' W 008°51'0 0.0
2017-Nov-09 09:28N 37°56' W 008°51'0 0.0
2017-Nov-09 08:59N 37°56' W 008°51'0 0.0
2017-Nov-09 08:29N 37°56' W 008°51'0 0.0
2017-Nov-09 07:58N 37°56' W 008°51'0 0.0
2017-Nov-09 07:28N 37°56' W 008°51'0 0.0
2017-Nov-09 06:58N 37°56' W 008°51'0 0.0
2017-Nov-09 06:28N 37°56' W 008°51'0 0.0
2017-Nov-09 05:58N 37°56' W 008°51'0 0.0
2017-Nov-09 05:28N 37°56' W 008°51'0 0.0
2017-Nov-09 04:58N 37°56' W 008°51'0 0.0
2017-Nov-09 04:28N 37°56' W 008°51'0 0.0
2017-Nov-09 03:58N 37°56' W 008°51'0 0.0
2017-Nov-09 03:28N 37°56' W 008°51'0 0.0
2017-Nov-09 02:58N 37°56' W 008°51'0 0.0
2017-Nov-09 02:28N 37°56' W 008°51'0 0.0
2017-Nov-09 01:58N 37°56' W 008°51'0 0.0
2017-Nov-09 01:28N 37°56' W 008°51'1 1.2
2017-Nov-09 01:00N 37°55' W 008°50'2 4.7
2017-Nov-09 00:30N 37°53' W 008°50'2 4.3
2017-Nov-09 00:00N 37°51' W 008°51'3 6.5
2017-Nov-08 23:31N 37°48' W 008°52'4 7.1
2017-Nov-08 23:00N 37°45' W 008°54'1 2.1
2017-Nov-08 22:30N 37°46' W 008°55'1 2.4
2017-Nov-08 22:01N 37°47' W 008°55'1 2.5
2017-Nov-08 21:31N 37°48' W 008°55'1 2.9
2017-Nov-08 21:00N 37°50' W 008°56'3 6.2
2017-Nov-08 20:31N 37°51' W 008°60'3 6.2
2017-Nov-08 20:01N 37°52' W 009°03'4 7.0
2017-Nov-08 19:31N 37°54' W 009°07'4 8.6
2017-Nov-08 19:01N 37°57' W 009°10'4 8.5
2017-Nov-08 18:30N 38°01' W 009°13'612.7
2017-Nov-08 18:01N 38°05' W 009°19'815.9
2017-Nov-08 17:31N 38°09' W 009°28'815.8
2017-Nov-08 17:00N 38°13' W 009°36'714.8
2017-Nov-08 16:30N 38°17' W 009°45'815.9
2017-Nov-08 16:00N 38°21' W 009°53'815.5
2017-Nov-08 15:30N 38°25' W 010°01'612.0
2017-Nov-08 15:00N 38°31' W 010°04'914.8
2017-Nov-08 14:24N 38°40' W 010°06'614.6
2017-Nov-08 14:00N 38°46' W 010°07'714.3
2017-Nov-08 13:30N 38°53' W 010°07'813.7
2017-Nov-08 12:57N 39°00' W 010°06'614.2
2017-Nov-08 12:30N 39°07' W 010°06'714.5
2017-Nov-08 12:00N 39°14' W 010°06'713.8
2017-Nov-08 11:31N 39°21' W 010°06'713.6
2017-Nov-08 10:59N 39°28' W 010°06'58116.7
2017-Nov-07 00:06N 48°42' W 005°60'322.0
2017-Nov-06 23:59N 48°44' W 005°58'1422.8
2017-Nov-06 23:21N 48°54' W 005°42'23211.1
2017-Nov-06 02:28N 49°28' E 000°08'0 0.0
2017-Nov-06 01:58N 49°28' E 000°08'0 0.0
2017-Nov-06 01:28N 49°28' E 000°08'0 0.0
2017-Nov-06 00:58N 49°28' E 000°08'0 0.0
2017-Nov-06 00:28N 49°28' E 000°08'0 0.0
2017-Nov-05 23:58N 49°28' E 000°08'0 0.0
2017-Nov-05 23:28N 49°28' E 000°08'0 0.0
2017-Nov-05 22:58N 49°28' E 000°08'0 0.0
2017-Nov-05 22:28N 49°28' E 000°08'0 0.0
2017-Nov-05 21:58N 49°28' E 000°08'0 0.0
2017-Nov-05 21:28N 49°28' E 000°08'0 0.0
2017-Nov-05 20:58N 49°28' E 000°08'0 0.0
2017-Nov-05 20:28N 49°28' E 000°08'0 0.0
2017-Nov-05 19:58N 49°28' E 000°08'0 0.7
2017-Nov-05 19:31N 49°28' E 000°08'4 8.7
2017-Nov-05 19:01N 49°30' E 000°02'611.8
2017-Nov-05 18:31N 49°32' W 000°06'3 6.4
2017-Nov-05 18:01N 49°33' W 000°11'5 9.2
2017-Nov-05 17:30N 49°38' W 000°11'510.5
2017-Nov-05 17:00N 49°43' W 000°11'511.0
2017-Nov-05 16:31N 49°48' W 000°10'510.5
2017-Nov-05 16:01N 49°54' W 000°11'510.7
2017-Nov-05 15:30N 49°59' W 000°13'610.8
2017-Nov-05 15:00N 50°04' W 000°14'611.3
2017-Nov-05 14:30N 50°10' W 000°14'611.2
2017-Nov-05 14:00N 50°15' W 000°14'611.5
2017-Nov-05 13:30N 50°20' W 000°09'612.6
2017-Nov-05 13:00N 50°25' W 000°03'611.7
2017-Nov-05 12:30N 50°29' E 000°05'611.8
2017-Nov-05 12:01N 50°30' E 000°13'611.3
2017-Nov-05 11:30N 50°32' E 000°22'510.8
2017-Nov-05 11:00N 50°34' E 000°30'510.4
2017-Nov-05 10:30N 50°36' E 000°38'510.2
2017-Nov-05 10:01N 50°39' E 000°44'510.3
2017-Nov-05 09:31N 50°41' E 000°51'510.6
2017-Nov-05 09:01N 50°44' E 000°58'510.2
2017-Nov-05 08:30N 50°47' E 001°05'611.5
2017-Nov-05 08:01N 50°51' E 001°12'714.2
2017-Nov-05 07:30N 50°56' E 001°20'715.0
2017-Nov-05 07:00N 51°01' E 001°28'815.0
2017-Nov-05 06:30N 51°07' E 001°36'714.2
2017-Nov-05 06:00N 51°12' E 001°44'714.1
2017-Nov-05 05:30N 51°17' E 001°51'713.0
2017-Nov-05 05:01N 51°23' E 001°57'510.2
2017-Nov-05 04:30N 51°25' E 002°05'612.1
2017-Nov-05 04:01N 51°22' E 002°13'510.9
2017-Nov-05 03:30N 51°21' E 002°22'611.1
2017-Nov-05 03:00N 51°23' E 002°31'510.9
2017-Nov-05 02:30N 51°23' E 002°39'5 9.8
2017-Nov-05 02:00N 51°25' E 002°47'917.4
2017-Nov-05 01:30N 51°25' E 003°01'917.2
2017-Nov-05 01:00N 51°25' E 003°14'816.4
2017-Nov-05 00:30N 51°25' E 003°27'510.5
2017-Nov-05 00:00N 51°26' E 003°36'4 8.9
2017-Nov-04 23:30N 51°24' E 003°43'714.0
2017-Nov-04 23:00N 51°21' E 003°53'714.1
2017-Nov-04 22:30N 51°26' E 004°00'611.4
2017-Nov-04 22:01N 51°22' E 004°07'5 9.5
2017-Nov-04 21:31N 51°21' E 004°14'4 7.3
2017-Nov-04 21:01N 51°18' E 004°16'0 0.4
2017-Nov-04 20:31N 51°18' E 004°16'0 0.0
2017-Nov-04 19:58N 51°18' E 004°16'0 0.0
2017-Nov-04 19:28N 51°18' E 004°16'0 0.0
2017-Nov-04 18:58N 51°18' E 004°16'0 0.0
2017-Nov-04 18:28N 51°18' E 004°16'0 0.0
2017-Nov-04 17:58N 51°18' E 004°16'0 0.0
2017-Nov-04 17:28N 51°18' E 004°16'0 0.0
2017-Nov-04 16:58N 51°18' E 004°16'0 0.0
2017-Nov-04 16:28N 51°18' E 004°16'0 0.0
2017-Nov-04 15:58N 51°18' E 004°16'0 0.0
2017-Nov-04 15:28N 51°18' E 004°16'0 0.0
2017-Nov-04 14:58N 51°18' E 004°16'0 0.0
2017-Nov-04 14:28N 51°18' E 004°16'0 0.0
2017-Nov-04 13:58N 51°18' E 004°16'0 0.0
2017-Nov-04 13:28N 51°18' E 004°16'0 0.0
2017-Nov-04 12:58N 51°18' E 004°16'0 0.0
2017-Nov-04 12:28N 51°18' E 004°16'0 0.0
2017-Nov-04 11:58N 51°18' E 004°16'0 0.0
2017-Nov-04 11:28N 51°18' E 004°16'0 0.0
2017-Nov-04 10:58N 51°18' E 004°16'0 0.0
2017-Nov-04 10:28N 51°18' E 004°16'0 0.0
2017-Nov-04 09:58N 51°18' E 004°16'0 0.0
2017-Nov-04 09:28N 51°18' E 004°16'0 0.0
2017-Nov-04 08:58N 51°18' E 004°16'0 0.0
2017-Nov-04 08:28N 51°18' E 004°16'0 0.0
2017-Nov-04 07:58N 51°18' E 004°16'0 0.0
2017-Nov-04 07:28N 51°18' E 004°16'0 0.0
2017-Nov-04 06:58N 51°18' E 004°16'0 0.0
2017-Nov-04 06:28N 51°18' E 004°16'0 0.0
2017-Nov-04 05:52N 51°18' E 004°16'0 0.0
2017-Nov-04 05:28N 51°18' E 004°16'0 0.0
2017-Nov-04 04:58N 51°18' E 004°16'0 0.0
2017-Nov-04 04:28N 51°18' E 004°16'0 0.0
2017-Nov-04 03:58N 51°18' E 004°16'0 0.0
2017-Nov-04 03:28N 51°18' E 004°16'0 0.0
2017-Nov-04 02:58N 51°18' E 004°16'0 0.0
2017-Nov-04 02:28N 51°18' E 004°16'0 0.0
2017-Nov-04 01:58N 51°18' E 004°16'0 0.0
2017-Nov-04 01:28N 51°18' E 004°16'0 0.0
2017-Nov-04 00:58N 51°18' E 004°16'0 0.0
2017-Nov-04 00:28N 51°18' E 004°16'0 0.0
2017-Nov-03 23:58N 51°18' E 004°16'0 0.0
2017-Nov-03 23:28N 51°18' E 004°16'0 0.0
2017-Nov-03 22:58N 51°18' E 004°16'0 0.0
2017-Nov-03 22:28N 51°18' E 004°16'0 0.0
2017-Nov-03 21:58N 51°18' E 004°16'0 0.0
2017-Nov-03 21:28N 51°18' E 004°16'0 0.0
2017-Nov-03 20:58N 51°18' E 004°16'0 0.0
2017-Nov-03 20:28N 51°18' E 004°16'0 0.0
2017-Nov-03 19:55N 51°18' E 004°16'1 1.6
2017-Nov-03 19:30N 51°18' E 004°16'2 4.7
2017-Nov-03 19:00N 51°20' E 004°16'5 9.4
2017-Nov-03 18:30N 51°23' E 004°10'510.5
2017-Nov-03 18:01N 51°25' E 004°02'4 7.6
2017-Nov-03 17:30N 51°23' E 003°56'612.5
2017-Nov-03 17:01N 51°21' E 003°47'714.0
2017-Nov-03 16:30N 51°26' E 003°39'816.6
2017-Nov-03 16:00N 51°25' E 003°26'816.8
2017-Nov-03 15:30N 51°24' E 003°13'917.7
2017-Nov-03 15:01N 51°25' E 002°59'917.4
2017-Nov-03 14:30N 51°33' E 003°06'917.8
2017-Nov-03 14:00N 51°41' E 003°12'510.0
2017-Nov-03 13:29N 51°46' E 003°15'2 4.7
2017-Nov-03 13:00N 51°48' E 003°16'4 7.3
2017-Nov-03 12:30N 51°51' E 003°17'3 6.7
2017-Nov-03 12:00N 51°55' E 003°18'4 7.9
2017-Nov-03 11:30N 51°59' E 003°19'4 7.3
2017-Nov-03 10:59N 52°02' E 003°20'918.3
2017-Nov-03 10:29N 52°12' E 003°21'1020.8
2017-Nov-03 09:59N 52°22' E 003°25'1121.1
2017-Nov-03 09:29N 52°32' E 003°29'1020.7
2017-Nov-03 09:00N 52°41' E 003°36'1121.5
2017-Nov-03 08:30N 52°50' E 003°46'1121.2
2017-Nov-03 08:00N 52°58' E 003°58'1121.0
2017-Nov-03 07:30N 53°04' E 004°11'1020.6
2017-Nov-03 07:01N 53°11' E 004°24'1920.1
2017-Nov-03 06:02N 53°28' E 004°38'120.2
2017-Nov-03 06:00N 53°29' E 004°39'1019.9
2017-Nov-03 05:30N 53°33' E 004°55'1019.6
2017-Nov-03 04:59N 53°36' E 005°11'1019.7
2017-Nov-03 04:29N 53°39' E 005°27'7220.8
2017-Nov-03 01:00N 53°60' E 007°24'1321.3
2017-Nov-03 00:22N 54°03' E 007°47'820.9
2017-Nov-02 23:59N 54°01' E 008°00'1017.1
2017-Nov-02 23:25N 54°00' E 008°16'919.6
2017-Nov-02 22:59N 53°58' E 008°31'816.3
2017-Nov-02 22:31N 53°54' E 008°42'611.7
2017-Nov-02 22:00N 53°50' E 008°49'510.8
2017-Nov-02 21:30N 53°51' E 008°59'611.5
2017-Nov-02 21:00N 53°53' E 009°08'611.5
2017-Nov-02 20:31N 53°52' E 009°17'714.5
2017-Nov-02 20:01N 53°46' E 009°24'714.6
2017-Nov-02 19:30N 53°40' E 009°31'714.3
2017-Nov-02 19:01N 53°34' E 009°39'713.5
2017-Nov-02 18:30N 53°33' E 009°50'3 6.7
2017-Nov-02 18:01N 53°32' E 009°55'0 0.0
2017-Nov-02 17:30N 53°32' E 009°55'0 0.0
2017-Nov-02 17:00N 53°32' E 009°55'0 0.0
2017-Nov-02 16:30N 53°32' E 009°55'0 0.0
2017-Nov-02 16:01N 53°32' E 009°55'0 0.0
2017-Nov-02 15:30N 53°32' E 009°55'0 0.0
2017-Nov-02 15:00N 53°32' E 009°55'0 0.0
2017-Nov-02 14:30N 53°32' E 009°55'0 0.0
2017-Nov-02 14:00N 53°32' E 009°55'0 0.0
2017-Nov-02 13:30N 53°32' E 009°55'0 0.0
2017-Nov-02 13:01N 53°32' E 009°55'0 0.0
2017-Nov-02 12:30N 53°32' E 009°55'0 0.0
2017-Nov-02 12:00N 53°32' E 009°55'0 0.0
2017-Nov-02 11:30N 53°32' E 009°55'0 0.0
2017-Nov-02 11:00N 53°32' E 009°55'0 0.0
2017-Nov-02 10:31N 53°32' E 009°55'0 0.0
2017-Nov-02 10:00N 53°32' E 009°55'0 0.0
2017-Nov-02 09:30N 53°32' E 009°55'0 0.0
2017-Nov-02 09:00N 53°32' E 009°55'0 0.0
2017-Nov-02 08:30N 53°32' E 009°55'0 0.0
2017-Nov-02 08:00N 53°32' E 009°55'0 0.0
2017-Nov-02 07:30N 53°32' E 009°55'0 0.0
2017-Nov-02 07:00N 53°32' E 009°55'0 0.0
2017-Nov-02 06:30N 53°32' E 009°55'  

Dump ship's entire track history